.
WxDataArchive / Data Records for 2006-06-14
2006-06-13 June 2006 2006-06-15

Data Records for Wednesday, 14 June 2006

Time	Temp	Chill	HIndex	Humid	Dewpt	 Wind 	HiWind	WindDir	Rain 	Barom 
-----	----	-----	------	-----	-----	------	------	-------	-----	----- 
00:00	64.7	64.7	64.7	69	54.3	0	2	292	0.00	30.019 
00:05	64.7	64.7	64.7	69	54.3	0	2	292	0.00	30.019 
00:10	64.7	64.7	64.7	69	54.3	0	2	315	0.00	30.019 
00:15	64.5	64.5	64.5	69	54.1	0	1	315	0.00	30.020 
00:20	64.3	64.3	64.3	69	53.9	0	1	315	0.00	30.020 
00:25	64.0	64.0	64.0	70	54.0	0	1	315	0.00	30.020 
00:30	63.9	63.9	63.9	71	54.3	0	1	315	0.00	30.025 
00:35	63.7	63.7	63.7	71	54.1	0	2	315	0.00	30.025 
00:40	63.5	63.5	63.5	71	53.9	0	1	315	0.00	30.025 
00:45	63.4	63.4	63.4	72	54.2	0	1	315	0.00	30.022 
00:50	63.2	63.2	63.2	72	54.0	0	1	315	0.00	30.022 
00:55	63.1	63.1	63.1	72	53.9	0	1	315	0.00	30.022 
01:00	62.7	62.7	62.7	73	53.9	0	1	315	0.00	30.021 
01:05	62.6	62.6	62.6	73	53.8	0	1	315	0.00	30.021 
01:10	62.4	62.4	62.4	73	53.6	0	0	---	0.00	30.021 
01:15	62.3	62.3	62.3	74	53.9	0	0	---	0.00	30.015 
01:20	62.0	62.0	62.0	74	53.6	0	0	---	0.00	30.015 
01:25	61.8	61.8	61.8	75	53.8	0	0	---	0.00	30.015 
01:30	61.6	61.6	61.6	75	53.6	0	0	---	0.00	30.014 
01:35	61.5	61.5	61.5	75	53.5	0	0	---	0.00	30.014 
01:40	61.3	61.3	61.3	76	53.7	0	0	---	0.00	30.014 
01:45	61.0	61.0	61.0	76	53.4	0	1	315	0.00	30.013 
01:50	60.9	60.9	60.9	77	53.6	0	0	---	0.00	30.013 
01:55	60.7	60.7	60.7	77	53.4	0	0	---	0.00	30.013 
02:00	60.5	60.5	60.5	77	53.2	0	0	---	0.00	30.012 
02:05	60.5	60.5	60.5	77	53.2	0	0	---	0.00	30.012 
02:10	60.4	60.4	60.4	77	53.2	0	0	---	0.00	30.012 
02:15	60.2	60.2	60.2	78	53.3	0	0	---	0.00	30.007 
02:20	60.1	60.1	60.1	78	53.2	0	0	---	0.00	30.007 
02:25	59.9	59.9	59.9	78	53.0	0	0	---	0.00	30.007 
02:30	59.8	59.8	59.8	79	53.3	0	0	---	0.00	30.001 
02:35	59.6	59.6	59.6	79	53.1	0	0	---	0.00	30.001 
02:40	59.5	59.5	59.5	79	53.0	0	1	315	0.00	30.001 
02:45	59.3	59.3	59.3	79	52.8	0	0	---	0.00	30.001 
02:50	59.2	59.2	59.2	80	53.0	0	0	---	0.00	30.001 
02:55	59.2	59.2	59.2	80	53.0	0	0	---	0.00	30.001 
03:00	59.0	59.0	59.0	80	52.8	0	0	---	0.00	30.000 
03:05	58.9	58.9	58.9	81	53.1	0	0	---	0.00	30.000 
03:10	58.9	58.9	58.9	81	53.1	0	0	---	0.00	30.000 
03:15	58.7	58.7	58.7	81	52.9	0	1	315	0.00	29.996 
03:20	58.6	58.6	58.6	81	52.8	0	1	315	0.00	29.996 
03:25	58.4	58.4	58.4	81	52.6	0	0	---	0.00	29.996 
03:30	58.3	58.3	58.3	81	52.5	0	0	---	0.00	29.997 
03:35	58.1	58.1	58.1	82	52.6	0	0	---	0.00	29.997 
03:40	58.1	58.1	58.1	82	52.6	0	0	---	0.00	29.997 
03:45	58.0	58.0	58.0	82	52.5	0	0	---	0.00	29.991 
03:50	57.8	57.8	57.8	83	52.7	0	0	---	0.00	29.991 
03:55	57.6	57.6	57.6	83	52.5	0	0	---	0.00	29.991 
04:00	57.5	57.5	57.5	84	52.7	0	0	---	0.00	29.993 
04:05	57.3	57.3	57.3	84	52.5	0	0	---	0.00	29.993 
04:10	57.2	57.2	57.2	85	52.7	0	0	---	0.00	29.993 
04:15	57.2	57.2	57.2	85	52.7	0	0	---	0.00	29.993 
04:20	57.0	57.0	57.0	85	52.5	0	0	---	0.00	29.993 
04:25	57.0	57.0	57.0	86	52.9	0	0	---	0.00	29.993 
04:30	56.9	56.9	56.9	86	52.8	0	0	---	0.00	29.996 
04:35	56.9	56.9	56.9	86	52.8	0	0	---	0.00	29.996 
04:40	56.7	56.7	56.7	86	52.6	0	0	---	0.00	29.996 
04:45	56.6	56.6	56.6	87	52.8	0	0	---	0.00	29.993 
04:50	56.6	56.6	56.6	87	52.8	0	0	---	0.00	29.993 
04:55	56.6	56.6	56.6	87	52.8	0	0	---	0.00	29.993 
05:00	56.6	56.6	56.6	87	52.8	0	0	---	0.00	29.998 
05:05	56.5	56.5	56.5	87	52.7	0	0	---	0.00	29.998 
05:10	56.3	56.3	56.3	87	52.5	0	0	---	0.00	29.998 
05:15	56.2	56.2	56.2	87	52.4	0	0	---	0.00	30.000 
05:20	55.9	55.9	55.9	88	52.4	0	0	---	0.00	30.000 
05:25	55.7	55.7	55.7	88	52.2	0	0	---	0.00	30.000 
05:30	55.6	55.6	55.6	88	52.1	0	0	---	0.00	30.000 
05:35	55.3	55.3	55.3	89	52.1	0	0	---	0.00	30.000 
05:40	55.1	55.1	55.1	89	51.9	0	0	---	0.00	30.000 
05:45	55.1	55.1	55.1	90	52.2	0	0	---	0.00	30.001 
05:50	55.1	55.1	55.1	90	52.2	0	0	---	0.00	30.001 
05:55	55.0	55.0	55.0	91	52.4	0	0	---	0.00	30.001 
06:00	55.0	55.0	55.0	91	52.4	0	0	---	0.00	30.003 
06:05	55.0	55.0	55.0	91	52.4	0	0	---	0.00	30.003 
06:10	55.0	55.0	55.0	91	52.4	0	0	---	0.00	30.003 
06:15	55.0	55.0	55.0	92	52.7	0	0	---	0.00	30.005 
06:20	54.8	54.8	54.8	92	52.5	0	0	---	0.00	30.005 
06:25	54.8	54.8	54.8	92	52.5	0	0	---	0.00	30.005 
06:30	54.8	54.8	54.8	92	52.5	0	0	---	0.00	30.013 
06:35	54.8	54.8	54.8	92	52.5	0	0	---	0.00	30.013 
06:40	55.0	55.0	55.0	92	52.7	0	0	---	0.00	30.013 
06:45	55.0	55.0	55.0	92	52.7	0	0	---	0.00	30.016 
06:50	55.0	55.0	55.0	92	52.7	0	0	---	0.00	30.016 
06:55	55.1	55.1	55.1	92	52.8	0	0	---	0.00	30.016 
07:00	55.3	55.3	55.3	92	53.0	0	0	---	0.00	30.018 
07:05	55.4	55.4	55.4	92	53.1	0	0	---	0.00	30.018 
07:10	55.7	55.7	55.7	92	53.4	0	0	---	0.00	30.018 
07:15	55.9	55.9	55.9	92	53.6	0	0	---	0.00	30.019 
07:20	56.3	56.3	56.3	92	54.0	0	0	---	0.00	30.019 
07:25	56.7	56.7	56.7	91	54.1	0	0	---	0.00	30.019 
07:30	57.3	57.3	57.3	89	54.1	0	0	---	0.00	30.020 
07:35	58.0	58.0	58.0	87	54.1	0	0	---	0.00	30.020 
07:40	58.7	58.7	58.7	85	54.2	0	1	315	0.00	30.020 
07:45	59.5	59.5	59.5	84	54.7	0	1	315	0.00	30.027 
07:50	60.2	60.2	60.2	81	54.3	0	2	315	0.00	30.027 
07:55	61.0	61.0	61.0	79	54.4	0	1	315	0.00	30.027 
08:00	61.8	61.8	61.8	76	54.1	1	3	45	0.00	30.024 
08:05	62.4	62.4	62.4	76	54.7	0	2	45	0.00	30.024 
08:10	62.9	62.9	62.9	74	54.5	0	2	45	0.00	30.024 
08:15	63.2	63.2	63.2	74	54.8	0	2	45	0.00	30.029 
08:20	63.9	63.9	63.9	72	54.7	0	2	45	0.00	30.029 
08:25	64.3	64.3	64.3	73	55.5	1	4	135	0.00	30.029 
08:30	64.7	64.7	64.7	71	55.1	0	3	90	0.00	30.028 
08:35	65.2	65.2	65.2	70	55.2	1	3	90	0.00	30.028 
08:40	65.5	65.5	65.5	70	55.4	2	3	90	0.00	30.028 
08:45	65.6	65.6	65.6	69	55.1	1	4	90	0.00	30.027 
08:50	66.0	66.0	66.0	67	54.7	1	3	90	0.00	30.027 
08:55	66.4	66.4	66.4	68	55.5	2	3	90	0.00	30.027 
09:00	66.6	66.6	66.6	68	55.7	1	3	90	0.00	30.028 
09:05	66.8	66.8	66.8	67	55.5	1	3	90	0.00	30.028 
09:10	67.1	67.1	67.1	68	56.2	0	3	135	0.00	30.028 
09:15	67.8	67.8	67.8	64	55.2	1	3	112	0.00	30.034 
09:20	68.1	68.1	68.1	63	55.0	1	3	112	0.00	30.034 
09:25	68.4	68.4	68.4	62	54.9	1	4	112	0.00	30.034 
09:30	68.3	68.3	68.3	63	55.2	2	3	112	0.00	30.037 
09:35	68.8	68.8	68.8	63	55.7	0	2	112	0.00	30.037 
09:40	69.6	69.6	69.6	63	56.4	1	3	112	0.00	30.037 
09:45	69.9	69.9	69.9	62	56.3	1	3	112	0.00	30.041 
09:50	70.4	70.4	70.4	59	55.4	1	4	112	0.00	30.041 
09:55	70.9	70.9	70.9	59	55.8	1	3	90	0.00	30.041 
10:00	70.9	70.9	70.9	58	55.4	2	4	68	0.00	30.037 
10:05	70.9	70.9	70.9	58	55.4	2	5	90	0.00	30.037 
10:10	71.3	71.3	71.3	57	55.3	2	5	90	0.00	30.037 
10:15	71.3	71.3	71.3	57	55.3	2	5	90	0.00	30.038 
10:20	71.5	71.5	71.5	57	55.5	2	5	112	0.00	30.038 
10:25	71.8	71.8	71.8	56	55.2	2	5	68	0.00	30.038 
10:30	72.0	72.0	72.0	55	54.9	2	4	112	0.00	30.037 
10:35	72.3	72.3	72.3	54	54.7	2	4	112	0.00	30.037 
10:40	72.7	72.7	72.7	54	55.1	2	4	112	0.00	30.037 
10:45	73.0	73.0	73.0	53	54.8	3	7	90	0.00	30.032 
10:50	73.3	73.3	73.3	54	55.6	2	6	68	0.00	30.032 
10:55	73.5	73.5	73.5	55	56.3	1	4	90	0.00	30.032 
11:00	73.9	73.9	73.9	54	56.2	2	5	90	0.00	30.035 
11:05	73.9	73.9	73.9	51	54.6	2	6	90	0.00	30.035 
11:10	73.9	73.9	73.9	53	55.7	2	4	90	0.00	30.035 
11:15	74.0	74.0	74.0	51	54.7	2	4	112	0.00	30.030 
11:20	74.7	74.7	74.7	53	56.4	1	3	68	0.00	30.030 
11:25	75.1	75.1	77.7	51	55.7	2	5	112	0.00	30.030 
11:30	74.7	74.7	74.7	50	54.8	3	7	112	0.00	30.026 
11:35	74.6	74.6	74.6	51	55.3	3	7	90	0.00	30.026 
11:40	74.7	74.7	74.7	50	54.8	3	6	112	0.00	30.026 
11:45	74.9	74.9	74.9	50	55.0	2	5	90	0.00	30.025 
11:50	75.1	75.1	77.6	52	56.3	1	3	315	0.00	30.025 
11:55	75.4	75.4	77.8	49	54.9	2	6	90	0.00	30.025 
12:00	75.4	75.4	77.8	52	56.5	3	7	90	0.00	30.025 
12:05	75.4	75.4	77.8	47	53.7	2	5	112	0.00	30.025 
12:10	76.0	76.0	78.1	52	57.1	1	5	90	0.00	30.025 
12:15	76.7	76.7	78.4	47	54.9	1	5	90	0.00	30.024 
12:20	76.5	76.5	78.3	48	55.3	2	5	90	0.00	30.024 
12:25	76.0	76.0	78.1	50	56.0	2	6	112	0.00	30.024 
12:30	75.8	75.8	77.9	46	53.5	2	5	112	0.00	30.025 
12:35	76.0	76.0	78.1	51	56.5	2	5	112	0.00	30.025 
12:40	76.3	76.3	78.2	48	55.1	2	6	90	0.00	30.025 
12:45	75.6	75.6	77.9	48	54.5	1	3	112	0.00	30.021 
12:50	75.8	75.8	78.0	50	55.8	1	5	90	0.00	30.021 
12:55	76.3	76.3	78.2	49	55.7	1	2	0	0.00	30.021 
13:00	76.8	76.8	78.2	41	51.3	2	5	90	0.00	30.020 
13:05	77.2	77.2	78.6	46	54.8	1	4	90	0.00	30.020 
13:10	76.7	76.7	78.4	48	55.5	1	5	90	0.00	30.020 
13:15	76.8	76.8	78.4	48	55.6	2	5	90	0.00	30.024 
13:20	77.0	77.0	78.4	43	52.8	2	5	90	0.00	30.024 
13:25	77.4	77.4	78.7	46	55.0	1	3	112	0.00	30.024 
13:30	77.7	77.7	78.9	46	55.2	1	2	45	0.00	30.025 
13:35	78.1	78.1	78.9	43	53.8	1	3	22	0.00	30.025 
13:40	77.9	77.9	78.9	44	54.2	1	4	112	0.00	30.025 
13:45	76.8	76.8	78.3	45	53.8	0	2	68	0.00	30.021 
13:50	77.4	77.4	78.8	48	56.1	2	7	112	0.00	30.021 
13:55	77.9	77.9	79.0	46	55.4	1	3	248	0.00	30.021 
14:00	78.1	78.1	79.0	44	54.4	1	4	45	0.00	30.011 
14:05	78.6	78.6	79.2	43	54.2	1	4	68	0.00	30.011 
14:10	78.5	78.5	79.1	42	53.5	2	4	90	0.00	30.011 
14:15	78.6	78.6	79.2	42	53.6	1	3	112	0.00	30.010 
14:20	78.6	78.6	78.9	38	50.8	1	3	112	0.00	30.010 
14:25	77.9	77.9	78.9	44	54.2	1	3	112	0.00	30.010 
14:30	77.9	77.9	78.8	43	53.6	1	3	68	0.00	30.011 
14:35	78.1	78.1	78.9	43	53.8	2	6	90	0.00	30.011 
14:40	78.3	78.3	79.1	43	53.9	1	4	90	0.00	30.011 
14:45	78.8	78.8	79.3	42	53.7	1	3	90	0.00	30.007 
14:50	78.5	78.5	79.0	40	52.1	1	4	135	0.00	30.007 
14:55	77.7	77.7	78.7	42	52.8	0	2	135	0.00	30.007 
15:00	77.4	77.4	78.6	45	54.4	0	2	90	0.00	30.008 
15:05	77.6	77.6	78.7	44	53.9	0	2	68	0.00	30.008 
15:10	77.9	77.9	78.7	40	51.6	0	2	22	0.00	30.008 
15:15	78.5	78.5	79.2	43	54.1	0	2	0	0.00	30.004 
15:20	79.0	79.0	79.7	46	56.4	1	5	0	0.00	30.004 
15:25	79.4	79.4	79.5	39	52.3	2	5	90	0.00	30.004 
15:30	79.0	79.0	79.2	39	51.9	2	5	90	0.00	30.001 
15:35	78.8	78.8	79.1	39	51.7	1	4	90	0.00	30.001 
15:40	78.5	78.5	79.0	40	52.1	1	3	270	0.00	30.001 
15:45	77.9	77.9	78.8	43	53.6	1	4	112	0.00	30.009 
15:50	77.7	77.7	78.6	40	51.4	1	3	68	0.00	30.009 
15:55	77.7	77.7	79.0	50	57.6	1	4	68	0.00	30.009 
16:00	77.9	77.9	78.9	45	54.8	2	5	90	0.00	30.007 
16:05	77.4	77.4	78.6	43	53.1	0	2	68	0.00	30.007 
16:10	77.2	77.2	78.5	45	54.2	0	2	68	0.00	30.007 
16:15	77.6	77.6	78.7	44	53.9	1	2	45	0.00	30.011 
16:20	78.6	78.6	79.2	42	53.6	0	2	292	0.00	30.011 
16:25	79.2	79.2	79.5	42	54.1	1	2	315	0.00	30.011 
16:30	79.8	79.8	80.0	43	55.3	1	3	292	0.00	30.008 
16:35	80.3	80.3	80.1	40	53.8	2	4	90	0.00	30.008 
16:40	80.3	80.3	80.3	42	55.1	1	3	90	0.00	30.008 
16:45	79.9	79.9	80.1	43	55.4	2	6	90	0.00	30.002 
16:50	79.4	79.4	79.8	43	54.9	1	3	90	0.00	30.002 
16:55	78.6	78.6	79.1	41	52.9	1	4	90	0.00	30.002 
17:00	78.8	78.8	79.4	43	54.4	2	5	90	0.00	29.997 
17:05	78.6	78.6	79.1	41	52.9	2	5	112	0.00	29.997 
17:10	79.0	79.0	79.4	42	53.9	1	3	112	0.00	29.997 
17:15	78.6	78.6	79.3	44	54.8	2	4	90	0.00	29.999 
17:20	78.5	78.5	78.9	39	51.5	1	4	68	0.00	29.999 
17:25	77.9	77.9	78.9	44	54.2	1	4	90	0.00	29.999 
17:30	77.4	77.4	78.6	43	53.1	0	1	90	0.00	30.000 
17:35	77.7	77.7	78.6	40	51.4	0	2	90	0.00	30.000 
17:40	78.5	78.5	79.2	43	54.1	1	5	112	0.00	30.000 
17:45	78.8	78.8	79.1	39	51.7	0	2	45	0.00	29.994 
17:50	79.0	79.0	79.2	39	51.9	1	4	68	0.00	29.994 
17:55	78.5	78.5	79.0	40	52.1	1	3	158	0.00	29.994 
18:00	77.7	77.7	78.7	43	53.4	0	3	90	0.00	29.999 
18:05	77.2	77.2	78.5	44	53.6	1	4	45	0.00	29.999 
18:10	76.7	76.7	78.3	44	53.1	1	4	68	0.00	29.999 
18:15	76.5	76.5	78.2	46	54.2	1	3	68	0.00	29.999 
18:20	76.5	76.5	78.2	45	53.6	1	3	112	0.00	29.999 
18:25	76.8	76.8	78.3	45	53.8	2	5	90	0.00	29.999 
18:30	76.7	76.7	78.4	48	55.5	1	4	90	0.00	29.999 
18:35	76.3	76.3	78.1	46	54.0	1	4	90	0.00	29.999 
18:40	76.3	76.3	78.1	45	53.4	2	3	90	0.00	29.999 
18:45	76.3	76.3	78.1	46	54.0	1	4	90	0.00	30.000 
18:50	76.1	76.1	78.0	45	53.2	2	4	90	0.00	30.000 
18:55	76.1	76.1	78.0	46	53.8	1	2	90	0.00	30.000 
19:00	76.1	76.1	78.0	45	53.2	2	4	90	0.00	29.997 
19:05	76.1	76.1	78.0	46	53.8	2	4	90	0.00	29.997 
19:10	76.1	76.1	78.0	46	53.8	1	3	112	0.00	29.997 
19:15	76.1	76.1	78.1	47	54.4	1	3	90	0.00	29.994 
19:20	76.0	76.0	78.0	45	53.1	1	4	90	0.00	29.994 
19:25	76.0	76.0	78.0	46	53.7	0	2	68	0.00	29.994 
19:30	75.8	75.8	77.9	44	52.3	1	4	68	0.00	29.996 
19:35	75.6	75.6	77.8	44	52.1	1	5	68	0.00	29.996 
19:40	75.4	75.4	77.8	46	53.2	1	4	90	0.00	29.996 
19:45	75.3	75.3	77.7	46	53.1	1	4	90	0.00	29.996 
19:50	75.1	75.1	77.7	46	52.9	2	6	112	0.00	29.996 
19:55	74.7	74.7	74.7	47	53.1	1	4	112	0.00	29.996 
20:00	74.6	74.6	74.6	49	54.2	0	3	112	0.00	29.996 
20:05	74.2	74.2	74.2	49	53.8	1	4	135	0.00	29.996 
20:10	74.2	74.2	74.2	48	53.2	1	3	112	0.00	29.996 
20:15	73.9	73.9	73.9	49	53.5	0	2	68	0.00	29.994 
20:20	73.5	73.5	73.5	49	53.2	0	1	68	0.00	29.994 
20:25	73.2	73.2	73.2	50	53.4	0	0	---	0.00	29.994 
20:30	72.8	72.8	72.8	51	53.6	0	0	---	0.00	29.994 
20:35	72.5	72.5	72.5	51	53.3	0	0	---	0.00	29.994 
20:40	72.1	72.1	72.1	52	53.5	0	0	---	0.00	29.994 
20:45	71.8	71.8	71.8	53	53.7	0	0	---	0.00	29.996 
20:50	71.8	71.8	71.8	54	54.2	0	1	68	0.00	29.996 
20:55	71.6	71.6	71.6	54	54.1	0	2	68	0.00	29.996 
21:00	71.5	71.5	71.5	54	54.0	0	1	68	0.00	29.996 
21:05	71.3	71.3	71.3	54	53.8	0	0	---	0.00	29.996 
21:10	70.9	70.9	70.9	54	53.4	0	0	---	0.00	29.996 
21:15	70.6	70.6	70.6	56	54.1	0	0	---	0.00	29.997 
21:20	70.3	70.3	70.3	56	53.8	0	1	68	0.00	29.997 
21:25	69.9	69.9	69.9	57	54.0	0	1	68	0.00	29.997 
21:30	69.8	69.8	69.8	57	53.9	0	1	68	0.00	29.999 
21:35	69.3	69.3	69.3	58	53.9	0	0	---	0.00	29.999 
21:40	68.9	68.9	68.9	59	54.0	0	0	---	0.00	29.999 
21:45	68.6	68.6	68.6	60	54.1	0	0	---	0.00	30.004 
21:50	68.1	68.1	68.1	61	54.1	0	0	---	0.00	30.004 
21:55	67.8	67.8	67.8	61	53.9	0	0	---	0.00	30.004 
22:00	67.4	67.4	67.4	62	53.9	0	0	---	0.00	30.010 
22:05	67.3	67.3	67.3	62	53.8	0	0	---	0.00	30.010 
22:10	66.9	66.9	66.9	62	53.4	0	0	---	0.00	30.010 
22:15	66.6	66.6	66.6	62	53.2	0	0	---	0.00	30.012 
22:20	66.4	66.4	66.4	62	53.0	0	0	---	0.00	30.012 
22:25	66.1	66.1	66.1	62	52.7	0	0	---	0.00	30.012 
22:30	66.0	66.0	66.0	63	53.0	0	0	---	0.00	30.012 
22:35	65.6	65.6	65.6	63	52.7	0	0	---	0.00	30.012 
22:40	65.3	65.3	65.3	64	52.8	0	0	---	0.00	30.012 
22:45	65.0	65.0	65.0	65	52.9	0	0	---	0.00	30.013 
22:50	64.7	64.7	64.7	65	52.7	0	0	---	0.00	30.013 
22:55	64.5	64.5	64.5	66	52.9	0	0	---	0.00	30.013 
23:00	64.3	64.3	64.3	68	53.5	0	0	---	0.00	30.016 
23:05	64.3	64.3	64.3	67	53.1	0	0	---	0.00	30.016 
23:10	64.2	64.2	64.2	66	52.6	0	0	---	0.00	30.016 
23:15	63.9	63.9	63.9	67	52.7	0	0	---	0.00	30.020 
23:20	63.7	63.7	63.7	67	52.5	0	0	---	0.00	30.020 
23:25	63.5	63.5	63.5	68	52.7	0	0	---	0.00	30.020 
23:30	63.2	63.2	63.2	69	52.9	0	0	---	0.00	30.023 
23:35	63.1	63.1	63.1	69	52.8	0	0	---	0.00	30.023 
23:40	62.7	62.7	62.7	70	52.8	0	0	---	0.00	30.023 
23:45	62.6	62.6	62.6	71	53.1	0	0	---	0.00	30.026 
23:50	62.3	62.3	62.3	72	53.2	0	0	---	0.00	30.026 
23:55	62.0	62.0	62.0	73	53.2	0	0	---	0.00	30.026 

CoCoRaHS
IN-AL-39
A2 Web Hosting
Creative Commons License
GoDaddy
Look for:

loaded 2017-10-17 00:10:49 • last modified 2010-11-18 10:43:29
Privacy PolicyDisclaimer
• wx.awcolley.com is powered by PmWiki v.2002016 •
• all content (unless otherwise noted) © 2017 A W Colley